Time;durP1;ratioP1;P1;durP2;ratioP2;P2;SDS_P1;SDS_P2;PMS_P1;PMS_P2;Temp;Humidity;BMP_temperature;BMP_pressure;BME280_temperature;BME280_humidity;BME280_pressure;Samples;Min_cycle;Max_cycle;Signal;HPM_P1;HPM_P2
2021/04/28 00:01:55;;;;;;;28.80;13.70;;;;;;;3.79;47.33;100015.04;2216756;80;27701;-62
2021/04/28 00:04:58;;;;;;;21.37;12.68;;;;;;;3.75;47.67;100011.61;2192158;80;29916;-62
2021/04/28 00:08:01;;;;;;;27.50;13.68;;;;;;;3.72;47.76;100005.53;2139649;81;31223;-63
2021/04/28 00:11:03;;;;;;;27.77;14.53;;;;;;;3.69;47.49;100002.95;2125505;82;33101;-62
2021/04/28 00:14:09;;;;;;;27.77;14.07;;;;;;;3.67;47.67;100007.42;2129496;82;29679;-62
2021/04/28 00:17:11;;;;;;;37.95;15.05;;;;;;;3.63;47.81;100003.99;2118219;82;27707;-64
2021/04/28 00:20:16;;;;;;;27.80;14.28;;;;;;;3.61;47.86;100005.80;2121864;81;28830;-63
2021/04/28 00:23:18;;;;;;;31.65;15.10;;;;;;;3.56;48.35;99999.75;2176118;80;32402;-64
2021/04/28 00:26:21;;;;;;;30.40;14.05;;;;;;;3.53;48.10;99993.20;2181994;81;33201;-63
2021/04/28 00:29:23;;;;;;;28.17;13.58;;;;;;;3.49;48.39;99989.30;2182674;81;29173;-63
2021/04/28 00:32:25;;;;;;;28.67;15.10;;;;;;;3.45;48.36;99992.95;2187366;80;27571;-63
2021/04/28 00:35:29;;;;;;;33.18;17.32;;;;;;;3.42;48.80;99988.17;2175816;80;29614;-63
2021/04/28 00:38:33;;;;;;;27.22;14.83;;;;;;;3.39;48.49;99993.09;2194774;80;31153;-62
2021/04/28 00:41:36;;;;;;;29.98;14.78;;;;;;;3.37;48.86;99989.62;2185971;80;33079;-61
2021/04/28 00:44:38;;;;;;;35.43;17.02;;;;;;;3.32;48.83;99988.41;2186359;80;29580;-62
2021/04/28 00:47:41;;;;;;;26.75;14.45;;;;;;;3.30;48.81;99983.61;2170175;82;27667;-62
2021/04/28 00:50:46;;;;;;;31.50;14.63;;;;;;;3.27;48.82;99987.64;2188773;80;29727;-61
2021/04/28 00:53:49;;;;;;;32.58;15.40;;;;;;;3.23;49.01;99980.68;2195364;80;31217;-62
2021/04/28 00:56:54;;;;;;;33.20;15.70;;;;;;;3.21;48.81;99975.02;2169205;81;34337;-62
2021/04/28 00:59:56;;;;;;;27.93;15.23;;;;;;;3.18;49.17;99972.00;2169991;82;29240;-61
2021/04/28 01:02:59;;;;;;;26.68;14.53;;;;;;;3.14;49.58;99968.58;2178008;80;27625;-61
2021/04/28 01:06:05;;;;;;;31.20;14.50;;;;;;;3.11;49.29;99972.61;2172246;80;31163;-62
2021/04/28 01:09:07;;;;;;;30.43;14.85;;;;;;;3.07;49.86;99969.61;2208382;80;31135;-62
2021/04/28 01:12:11;;;;;;;34.00;16.25;;;;;;;3.03;49.54;99963.53;2196005;80;34393;-63
2021/04/28 01:15:19;;;;;;;33.45;16.45;;;;;;;3.02;49.63;99970.17;2177116;80;44268;-63
2021/04/28 01:18:23;;;;;;;30.90;14.80;;;;;;;2.98;49.81;99968.06;2170328;80;27732;-64
2021/04/28 01:21:25;;;;;;;28.60;15.28;;;;;;;2.93;49.96;99965.97;2169992;80;28824;-63
2021/04/28 01:24:28;;;;;;;33.75;17.98;;;;;;;2.89;49.82;99963.00;2200216;80;32492;-64
2021/04/28 01:27:30;;;;;;;33.90;15.83;;;;;;;2.84;49.82;99956.47;2206377;80;33131;-63
2021/04/28 01:30:44;;;;;;;34.25;16.70;;;;;;;2.83;50.08;99963.13;2217175;80;29157;-63
2021/04/28 01:33:50;;;;;;;35.63;15.95;;;;;;;2.79;49.98;99954.41;2190209;80;27703;-63
2021/04/28 01:36:54;;;;;;;36.30;17.07;;;;;;;2.77;49.95;99952.24;2211664;79;29823;-63
2021/04/28 01:39:57;;;;;;;28.40;15.45;;;;;;;2.75;50.02;99952.73;2205382;79;31155;-63
2021/04/28 01:42:59;;;;;;;37.50;17.05;;;;;;;2.72;50.51;99955.44;2178702;80;33127;-62
2021/04/28 01:46:01;;;;;;;31.02;14.75;;;;;;;2.69;50.34;99954.17;2203131;80;31494;-63
2021/04/28 01:49:05;;;;;;;32.08;16.37;;;;;;;2.68;50.69;99955.08;2208244;80;27699;-63
2021/04/28 01:52:07;;;;;;;23.90;13.30;;;;;;;2.62;50.53;99952.12;2208370;80;28847;-63
2021/04/28 01:55:12;;;;;;;32.00;16.23;;;;;;;2.61;50.97;99952.17;2207410;80;31557;-62
2021/04/28 01:58:15;;;;;;;39.83;16.35;;;;;;;2.58;50.89;99951.34;2217525;80;33971;-61
2021/04/28 02:01:18;;;;;;;27.98;15.58;;;;;;;2.57;50.84;99954.88;2213036;80;31489;-62
2021/04/28 02:04:20;;;;;;;31.45;15.10;;;;;;;2.55;50.67;99946.11;2219007;80;27944;-61
2021/04/28 02:07:23;;;;;;;31.07;16.17;;;;;;;2.55;50.71;99942.14;2201805;80;28926;-61
2021/04/28 02:10:26;;;;;;;35.25;15.40;;;;;;;2.55;51.04;99942.61;2178832;80;32062;-62
2021/04/28 02:13:33;;;;;;;31.93;14.33;;;;;;;2.52;51.08;99936.06;2179123;80;33135;-63
2021/04/28 02:16:38;;;;;;;30.12;15.08;;;;;;;2.49;52.07;99940.09;2179610;80;29168;-63
2021/04/28 02:19:40;;;;;;;29.02;15.78;;;;;;;2.45;51.58;99937.98;2179410;80;27624;-62
2021/04/28 02:22:44;;;;;;;32.93;15.60;;;;;;;2.42;51.47;99937.57;2209215;79;28864;-62
2021/04/28 02:25:46;;;;;;;33.98;16.10;;;;;;;2.40;51.82;99931.44;2217915;79;32051;-62
2021/04/28 02:28:48;;;;;;;32.60;15.00;;;;;;;2.39;51.47;99941.63;2189214;79;33203;-62
2021/04/28 02:31:51;;;;;;;34.63;16.12;;;;;;;2.36;51.90;99937.72;2195250;79;29175;-63
2021/04/28 02:34:54;;;;;;;30.08;15.45;;;;;;;2.34;51.93;99938.20;2223667;79;27743;-62
2021/04/28 02:38:14;;;;;;;34.63;16.12;;;;;;;2.30;51.82;99937.84;2200181;79;28896;-61
2021/04/28 02:41:16;;;;;;;36.15;16.65;;;;;;;2.27;51.69;99937.47;2188972;79;31224;-61
2021/04/28 02:44:19;;;;;;;38.45;17.98;;;;;;;2.25;51.93;99937.06;2207345;79;33185;-62
2021/04/28 02:47:22;;;;;;;39.78;16.15;;;;;;;2.20;51.89;99932.35;2226696;79;28998;-62
2021/04/28 02:50:26;;;;;;;32.50;16.27;;;;;;;2.18;52.01;99933.69;2218328;79;27677;-62
2021/04/28 02:53:31;;;;;;;32.50;15.48;;;;;;;2.13;52.32;99931.61;2220617;79;29737;-63
2021/04/28 02:56:33;;;;;;;33.63;17.70;;;;;;;2.09;52.88;99928.14;2211151;79;30955;-62
2021/04/28 02:59:36;;;;;;;30.45;15.95;;;;;;;2.06;52.33;99923.38;2210290;79;33125;-63
2021/04/28 03:02:39;;;;;;;32.93;17.45;;;;;;;2.04;53.22;99918.14;2157022;79;29596;-62
2021/04/28 03:05:42;;;;;;;37.15;17.23;;;;;;;2.02;52.97;99918.62;2175904;81;27742;-62
2021/04/28 03:08:46;;;;;;;38.67;18.40;;;;;;;2.01;52.96;99922.16;2150414;81;28833;-62
2021/04/28 03:11:48;;;;;;;20.95;10.18;;;;;;;2.03;52.97;99922.12;2207295;80;31224;-62
2021/04/28 03:14:51;;;;;;;35.75;17.27;;;;;;;2.03;53.69;99919.47;2147835;82;33641;-62
2021/04/28 03:17:54;;;;;;;34.90;17.87;;;;;;;2.02;53.42;99915.98;2123714;82;29185;-62
2021/04/28 03:20:57;;;;;;;34.70;17.27;;;;;;;2.01;53.21;99910.27;2125593;82;27745;-61
2021/04/28 03:24:01;;;;;;;36.53;17.57;;;;;;;2.01;53.20;99916.87;2171596;81;28817;-62
2021/04/28 03:27:10;;;;;;;38.60;16.85;;;;;;;2.01;53.11;99912.91;2179552;79;31149;-62
2021/04/28 03:30:13;;;;;;;38.70;17.50;;;;;;;2.01;53.26;99901.02;2192576;80;33553;-61
2021/04/28 03:33:16;;;;;;;36.08;17.90;;;;;;;2.02;53.11;99904.52;2186025;80;30043;-62
2021/04/28 03:36:18;;;;;;;38.13;19.40;;;;;;;2.02;53.07;99902.77;2183156;80;27674;-61
2021/04/28 03:39:20;;;;;;;36.08;17.87;;;;;;;2.04;53.00;99912.86;2194217;79;29789;-61
2021/04/28 03:42:23;;;;;;;35.83;18.02;;;;;;;2.09;53.20;99914.08;2178947;80;31161;-61
2021/04/28 03:45:26;;;;;;;39.98;17.45;;;;;;;2.12;53.19;99912.23;2198006;80;33070;-62
2021/04/28 03:48:28;;;;;;;35.00;18.65;;;;;;;2.15;53.43;99898.10;2208027;80;29155;-63
2021/04/28 03:51:32;;;;;;;36.25;17.32;;;;;;;2.18;53.34;99901.12;2205447;80;27669;-63
2021/04/28 03:54:34;;;;;;;40.35;18.30;;;;;;;2.19;53.46;99902.86;2178296;80;28939;-62
2021/04/28 03:57:37;;;;;;;35.65;17.73;;;;;;;2.22;53.21;99906.77;2179542;80;31736;-62
2021/04/28 04:00:39;;;;;;;34.45;17.62;;;;;;;2.24;53.40;99900.97;2191904;80;33120;-61
2021/04/28 04:03:42;;;;;;;32.25;17.07;;;;;;;2.28;53.38;99900.00;2214782;80;30525;-62
2021/04/28 04:06:44;;;;;;;36.77;17.95;;;;;;;2.31;53.51;99905.23;2215486;80;27703;-63
2021/04/28 04:09:47;;;;;;;42.13;19.77;;;;;;;2.36;53.80;99903.36;2208662;80;28832;-62
2021/04/28 04:12:49;;;;;;;40.88;18.82;;;;;;;2.45;53.39;99905.36;2217134;80;31104;-62
2021/04/28 04:15:51;;;;;;;29.57;16.73;;;;;;;2.52;53.35;99909.16;2183895;80;33131;-63
2021/04/28 04:18:54;;;;;;;32.70;17.82;;;;;;;2.58;53.54;99900.20;2181032;80;30031;-62
2021/04/28 04:21:57;;;;;;;37.65;18.50;;;;;;;2.64;53.30;99899.22;2194626;79;27849;-62
2021/04/28 04:25:00;;;;;;;36.73;19.45;;;;;;;2.76;53.20;99908.61;2217566;79;28860;-63
2021/04/28 04:28:03;;;;;;;36.77;18.00;;;;;;;2.86;53.04;99904.39;2213323;79;31123;-62
2021/04/28 04:31:05;;;;;;;33.00;19.00;;;;;;;2.98;52.97;99907.67;2213853;80;33201;-63
2021/04/28 04:34:08;;;;;;;34.53;17.30;;;;;;;3.09;52.96;99902.08;2177982;80;29165;-62
2021/04/28 04:37:10;;;;;;;33.23;17.00;;;;;;;3.19;52.97;99909.75;2196204;80;27657;-62
2021/04/28 04:40:14;;;;;;;36.42;17.57;;;;;;;3.24;52.86;99913.59;2221964;80;29016;-62
2021/04/28 04:43:16;;;;;;;31.33;18.37;;;;;;;3.33;52.93;99910.73;2188260;80;31250;-63
2021/04/28 04:46:19;;;;;;;35.65;18.23;;;;;;;3.40;52.81;99902.60;2178959;80;34243;-62
2021/04/28 04:49:21;;;;;;;43.15;18.92;;;;;;;3.52;52.71;99908.03;2139715;82;30149;-61
2021/04/28 04:52:24;;;;;;;31.33;16.87;;;;;;;3.73;52.65;99902.16;2217280;80;27657;-62
2021/04/28 04:55:27;;;;;;;34.63;17.07;;;;;;;3.89;52.38;99900.39;2214132;80;28812;-61
2021/04/28 04:58:29;;;;;;;30.85;17.52;;;;;;;3.95;52.26;99903.73;2217038;80;31156;-62
2021/04/28 05:01:32;;;;;;;31.15;17.05;;;;;;;4.09;52.03;99903.78;2214600;80;33151;-62
2021/04/28 05:04:36;;;;;;;38.88;19.70;;;;;;;4.18;51.81;99900.88;2216381;80;29158;-62
2021/04/28 05:07:38;;;;;;;31.48;17.48;;;;;;;4.40;51.60;99903.75;2216256;80;27686;-61
2021/04/28 05:10:41;;;;;;;35.10;18.73;;;;;;;4.59;51.40;99905.84;2205692;80;29638;-63
2021/04/28 05:13:43;;;;;;;36.65;18.07;;;;;;;4.73;51.14;99905.85;2200603;80;32102;-63
2021/04/28 05:16:48;;;;;;;36.77;18.48;;;;;;;4.83;50.92;99899.31;2217505;80;34003;-62
2021/04/28 05:19:51;;;;;;;36.60;18.27;;;;;;;5.02;50.97;99902.25;2196320;80;28977;-62
2021/04/28 05:22:55;;;;;;;32.88;17.25;;;;;;;5.32;50.93;99897.67;2193370;80;27782;-62
2021/04/28 05:25:57;;;;;;;36.45;16.82;;;;;;;5.54;50.49;99903.58;2193180;80;29767;-65
2021/04/28 05:28:59;;;;;;;32.17;17.45;;;;;;;5.65;50.04;99899.21;2182355;80;30274;-65
2021/04/28 05:32:01;;;;;;;34.27;18.77;;;;;;;5.75;49.71;99897.95;2178555;81;33131;-67
2021/04/28 05:35:05;;;;;;;33.45;17.48;;;;;;;5.90;49.75;99895.20;2210742;80;29166;-65
2021/04/28 05:38:07;;;;;;;33.18;17.35;;;;;;;6.11;49.71;99898.47;2204674;78;27691;-65
2021/04/28 05:41:10;;;;;;;27.02;15.98;;;;;;;6.36;49.49;99893.96;2176934;81;29254;-65
2021/04/28 05:44:12;;;;;;;29.60;15.68;;;;;;;6.57;48.91;99895.35;2201789;80;31151;-64
2021/04/28 05:47:14;;;;;;;32.98;16.42;;;;;;;6.84;48.98;99892.05;2216798;80;33618;-63
2021/04/28 05:50:18;;;;;;;30.00;17.35;;;;;;;7.14;47.72;99889.52;2214172;80;29167;-66
2021/04/28 05:53:21;;;;;;;33.75;16.62;;;;;;;7.63;48.09;99881.66;2178035;80;27584;-66
2021/04/28 05:56:23;;;;;;;27.77;16.97;;;;;;;8.32;47.04;99887.84;2219869;80;28821;-64
2021/04/28 05:59:26;;;;;;;32.53;16.50;;;;;;;8.63;46.50;99873.55;2217493;80;32151;-64
2021/04/28 06:02:28;;;;;;;31.30;17.23;;;;;;;8.76;45.79;99877.34;2217723;80;33184;-64
2021/04/28 06:05:31;;;;;;;28.98;15.75;;;;;;;8.79;45.40;99870.97;2217559;80;29030;-64
2021/04/28 06:08:34;;;;;;;32.73;17.07;;;;;;;8.75;44.60;99871.60;2212483;80;27678;-64
2021/04/28 06:11:37;;;;;;;32.00;17.20;;;;;;;8.68;44.18;99867.97;2178363;81;30236;-63
2021/04/28 06:14:39;;;;;;;30.15;15.68;;;;;;;8.61;44.55;99874.09;2179116;81;32073;-62
2021/04/28 06:17:43;;;;;;;29.63;16.07;;;;;;;8.64;45.03;99873.94;2179080;81;34226;-62
2021/04/28 06:20:45;;;;;;;38.83;18.05;;;;;;;8.69;44.74;99873.22;2179232;80;29232;-63
2021/04/28 06:23:48;;;;;;;30.70;17.65;;;;;;;8.84;44.95;99875.62;2179672;80;27711;-62
2021/04/28 06:26:51;;;;;;;30.55;15.95;;;;;;;8.95;44.58;99881.29;2179316;80;28835;-64
2021/04/28 06:29:53;;;;;;;28.40;15.35;;;;;;;9.08;44.00;99874.88;2179109;81;32043;-63
2021/04/28 06:32:55;;;;;;;27.75;15.70;;;;;;;9.17;43.87;99870.02;2179241;80;33575;-64
2021/04/28 06:35:58;;;;;;;28.73;16.62;;;;;;;9.31;43.59;99866.63;2179125;81;29581;-63
2021/04/28 06:39:00;;;;;;;28.10;16.65;;;;;;;9.47;43.17;99876.06;2179257;81;27693;-65
2021/04/28 06:42:03;;;;;;;34.75;18.00;;;;;;;9.40;42.95;99864.34;2179831;80;28827;-64
2021/04/28 06:45:08;;;;;;;30.10;16.82;;;;;;;9.53;43.37;99856.55;2179051;81;32057;-64
2021/04/28 06:48:10;;;;;;;30.62;15.55;;;;;;;9.68;42.65;99866.05;2179099;81;33061;-69
2021/04/28 06:51:13;;;;;;;26.33;14.93;;;;;;;9.76;42.28;99862.95;2206962;80;29231;-61
2021/04/28 06:54:15;;;;;;;30.68;16.05;;;;;;;9.85;42.37;99859.78;2221309;80;27732;-62
2021/04/28 06:57:17;;;;;;;30.23;15.63;;;;;;;9.90;42.32;99857.73;2208074;80;30143;-65
2021/04/28 07:00:21;;;;;;;31.00;17.27;;;;;;;9.91;41.70;99851.43;2179313;81;31140;-62
2021/04/28 07:03:25;;;;;;;27.60;16.40;;;;;;;10.08;41.46;99846.97;2179054;81;33413;-65
2021/04/28 07:06:27;;;;;;;29.80;14.60;;;;;;;10.31;42.07;99842.55;2178803;81;30107;-63
2021/04/28 07:09:30;;;;;;;29.55;17.45;;;;;;;10.61;41.03;99839.12;2178997;80;27639;-63
2021/04/28 07:12:33;;;;;;;35.15;18.42;;;;;;;10.90;40.98;99833.03;2178687;81;29788;-64
2021/04/28 07:15:35;;;;;;;27.27;17.45;;;;;;;11.24;40.98;99831.88;2178795;81;32057;-63
2021/04/28 07:18:38;;;;;;;32.03;16.90;;;;;;;11.46;41.22;99827.02;2178749;81;33135;-63
2021/04/28 07:21:44;;;;;;;33.00;18.77;;;;;;;11.76;40.81;99827.42;2179039;79;30082;-63
2021/04/28 07:24:48;;;;;;;26.95;15.90;;;;;;;12.16;40.21;99824.45;2178441;81;27815;-63
2021/04/28 07:27:51;;;;;;;31.07;18.10;;;;;;;12.50;38.27;99826.80;2177652;81;28816;-63
2021/04/28 07:30:54;;;;;;;31.30;15.78;;;;;;;12.54;38.70;99822.08;2200395;80;31705;-63
2021/04/28 07:33:58;;;;;;;30.57;17.57;;;;;;;12.83;37.74;99819.27;2195641;80;34444;-65
2021/04/28 07:37:04;;;;;;;33.63;18.90;;;;;;;12.95;38.16;99818.94;2178972;81;30097;-67
2021/04/28 07:40:08;;;;;;;39.70;18.45;;;;;;;13.08;38.06;99817.14;2178740;81;27597;-66
2021/04/28 07:43:11;;;;;;;29.48;17.45;;;;;;;13.46;38.44;99810.98;2182315;79;28821;-70
2021/04/28 07:46:13;;;;;;;30.08;16.40;;;;;;;13.74;38.06;99815.77;2213924;79;31120;-66
2021/04/28 07:49:16;;;;;;;27.50;15.98;;;;;;;13.93;37.09;99811.30;2212793;80;34042;-67
2021/04/28 07:52:19;;;;;;;28.00;17.00;;;;;;;14.03;36.95;99810.15;2215101;78;29245;-66
2021/04/28 07:55:22;;;;;;;29.52;16.90;;;;;;;14.48;36.93;99804.18;2178451;80;28346;-64
2021/04/28 07:58:24;;;;;;;24.27;15.55;;;;;;;14.87;36.94;99806.25;2208136;80;28888;-65
2021/04/28 08:01:27;;;;;;;35.03;17.52;;;;;;;15.17;36.70;99807.58;2208257;79;31210;-63
2021/04/28 08:04:29;;;;;;;30.77;17.20;;;;;;;15.46;36.13;99804.48;2213786;79;33110;-63
2021/04/28 08:07:32;;;;;;;26.65;16.20;;;;;;;15.73;35.54;99801.05;2215007;79;29157;-64
2021/04/28 08:10:35;;;;;;;24.02;15.50;;;;;;;15.95;35.27;99800.25;2215976;78;27753;-63
2021/04/28 08:13:37;;;;;;;23.40;15.80;;;;;;;16.71;35.88;99796.78;2216302;79;28825;-66
2021/04/28 08:16:40;;;;;;;24.02;13.32;;;;;;;17.18;33.95;99801.88;2207606;78;31132;-68
2021/04/28 08:19:44;;;;;;;23.75;14.28;;;;;;;17.60;33.19;99801.88;2211802;78;33148;-66
2021/04/28 08:22:49;;;;;;;19.10;13.62;;;;;;;17.88;32.99;99799.92;2214375;79;30040;-64
2021/04/28 08:25:52;;;;;;;23.65;14.33;;;;;;;18.35;33.54;99790.79;2216648;79;27757;-64
2021/04/28 08:28:57;;;;;;;25.00;12.65;;;;;;;18.86;32.71;99792.55;2217028;79;29799;-63
2021/04/28 08:31:59;;;;;;;21.02;14.73;;;;;;;19.12;30.74;99784.20;2215216;78;32042;-62
2021/04/28 08:35:03;;;;;;;23.18;14.13;;;;;;;19.22;31.59;99782.84;2221831;78;33312;-64
2021/04/28 08:38:05;;;;;;;23.30;14.28;;;;;;;19.43;30.90;99782.68;2211671;79;29168;-65
2021/04/28 08:41:10;;;;;;;21.07;13.58;;;;;;;19.52;31.27;99779.58;2181795;78;27877;-64
2021/04/28 08:44:13;;;;;;;23.83;13.72;;;;;;;19.70;30.47;99776.94;2203022;78;29817;-62
2021/04/28 08:47:16;;;;;;;20.50;13.13;;;;;;;19.80;30.97;99775.55;2216931;79;31142;-75
2021/04/28 08:50:19;;;;;;;26.07;15.70;;;;;;;19.81;30.06;99780.47;2180855;79;34491;-62
2021/04/28 08:53:23;;;;;;;25.00;13.65;;;;;;;19.75;30.65;99776.48;2218506;79;29168;-60
2021/04/28 08:56:27;;;;;;;24.83;14.43;;;;;;;19.58;29.62;99770.82;2223327;78;27610;-60
2021/04/28 08:59:30;;;;;;;;;;;;;;;19.17;29.46;99774.29;2211847;79;28811;-61
2021/04/28 09:02:33;;;;;;;24.43;13.08;;;;;;;18.90;29.99;99769.05;2222225;79;31199;-61
2021/04/28 09:05:38;;;;;;;19.60;11.43;;;;;;;18.83;30.14;99767.92;2210874;78;33838;-63
2021/04/28 09:08:50;;;;;;;20.65;12.63;;;;;;;18.73;30.44;99765.20;2216135;78;29144;-62
2021/04/28 09:11:55;;;;;;;21.37;13.60;;;;;;;18.81;30.35;99763.13;2219660;79;27669;-63
2021/04/28 09:14:58;;;;;;;24.50;13.62;;;;;;;18.85;30.13;99757.78;2224938;79;28925;-62
2021/04/28 09:18:02;;;;;;;23.92;12.93;;;;;;;18.76;29.88;99758.14;2221306;78;31142;-61
2021/04/28 09:21:05;;;;;;;20.52;10.85;;;;;;;18.74;31.11;99747.05;2213498;78;34042;-60
2021/04/28 09:24:27;;;;;;;20.72;11.38;;;;;;;18.95;30.80;99745.08;2213259;78;29242;-62
2021/04/28 09:27:35;;;;;;;22.67;13.43;;;;;;;18.89;30.36;99743.41;2215601;78;27739;-62
2021/04/28 09:30:41;;;;;;;24.45;11.70;;;;;;;18.72;29.30;99737.71;2217933;80;28873;-61
2021/04/28 09:33:51;;;;;;;20.65;13.08;;;;;;;18.61;30.17;99735.98;2218697;80;31070;-61
2021/04/28 09:37:14;;;;;;;21.62;11.45;;;;;;;18.57;30.22;99726.41;2175172;81;35385;-62
2021/04/28 09:40:18;;;;;;;16.52;11.28;;;;;;;18.52;29.90;99721.94;2147482;82;29174;-64
2021/04/28 09:43:21;;;;;;;17.55;9.48;;;;;;;18.41;30.44;99728.83;2181291;81;27973;-61
2021/04/28 09:46:24;;;;;;;17.17;9.70;;;;;;;18.28;29.60;99725.05;2173566;81;28823;-65
2021/04/28 09:49:59;;;;;;;12.23;8.65;;;;;;;18.03;30.50;99721.37;2170338;81;31141;-61
2021/04/28 09:53:03;;;;;;;16.77;10.93;;;;;;;17.90;29.97;99717.99;2175398;80;34066;-61
2021/04/28 09:56:17;;;;;;;16.40;9.88;;;;;;;17.55;31.07;99671.41;2173293;81;29247;-61
2021/04/28 09:59:20;;;;;;;16.10;10.60;;;;;;;17.77;30.78;99704.71;2174931;81;27699;-61
2021/04/28 10:02:31;;;;;;;16.82;10.93;;;;;;;17.77;30.78;99701.49;2173982;81;30209;-66
2021/04/28 10:05:41;;;;;;;19.80;11.85;;;;;;;17.74;31.01;99692.28;2149118;81;31206;-63
2021/04/28 10:08:45;;;;;;;17.70;10.30;;;;;;;17.74;31.01;99692.28;2174874;81;33047;-62
2021/04/28 10:11:48;;;;;;;15.83;9.00;;;;;;;17.68;29.91;99693.33;2174849;81;29166;-63
2021/04/28 10:14:51;;;;;;;13.98;7.70;;;;;;;17.46;30.20;99681.69;2174643;81;27700;-62
2021/04/28 10:17:55;;;;;;;12.93;8.53;;;;;;;17.46;30.20;99681.69;2174528;81;30141;-63
2021/04/28 10:20:58;;;;;;;12.23;5.55;;;;;;;17.35;29.76;99681.80;2175756;81;31113;-61
2021/04/28 10:24:02;;;;;;;12.45;7.08;;;;;;;17.24;29.96;99668.72;2182690;80;33115;-61
2021/04/28 10:27:10;;;;;;;9.70;6.80;;;;;;;17.18;30.23;99667.89;2180826;80;29211;-65
2021/04/28 10:30:16;;;;;;;14.00;7.47;;;;;;;17.21;30.52;99662.22;2217085;80;27589;-63
2021/04/28 10:33:25;;;;;;;14.23;6.20;;;;;;;17.30;30.60;99665.96;2217099;80;29796;-62
2021/04/28 10:36:28;;;;;;;14.58;7.20;;;;;;;17.31;29.12;99660.40;2216479;80;32173;-60
2021/04/28 10:39:32;;;;;;;9.95;6.42;;;;;;;17.20;29.70;99654.24;2217137;79;33103;-62
2021/04/28 10:42:39;;;;;;;11.73;6.28;;;;;;;17.06;29.95;99646.81;2216578;79;29323;-66
2021/04/28 10:45:43;;;;;;;12.55;7.65;;;;;;;16.97;29.19;99661.16;2217500;80;27661;-64
2021/04/28 10:48:46;;;;;;;9.50;6.27;;;;;;;16.80;29.85;99630.11;2217734;80;28915;-62
2021/04/28 10:51:49;;;;;;;19.42;10.82;;;;;;;16.89;29.77;99649.63;2216594;79;32166;-62
2021/04/28 10:54:51;;;;;;;12.18;7.65;;;;;;;16.86;30.13;99635.00;2186559;80;34405;-63
2021/04/28 10:57:54;;;;;;;12.98;8.73;;;;;;;16.86;30.13;99635.00;2178703;81;29169;-66
2021/04/28 11:01:05;;;;;;;13.75;7.25;;;;;;;16.85;30.42;99634.16;2178984;80;27676;-67
2021/04/28 11:04:12;;;;;;;9.63;6.10;;;;;;;16.90;30.74;99627.47;2178776;81;29700;-67
2021/04/28 11:07:16;;;;;;;14.55;7.55;;;;;;;16.97;30.28;99621.92;2178715;81;32128;-62
2021/04/28 11:10:34;;;;;;;10.57;6.07;;;;;;;17.07;30.71;99622.82;2164687;80;33108;-62
2021/04/28 11:13:36;;;;;;;16.50;6.60;;;;;;;17.06;28.73;99627.87;2178692;81;29133;-65
2021/04/28 11:16:55;;;;;;;9.78;5.53;;;;;;;17.08;29.15;99630.45;2177005;81;27702;-63
2021/04/28 11:20:20;;;;;;;12.35;6.87;;;;;;;17.08;29.15;99630.45;2176845;80;29433;-62
2021/04/28 11:23:23;;;;;;;13.15;6.70;;;;;;;17.08;29.72;99615.58;2159821;82;31156;-65
2021/04/28 11:26:29;;;;;;;10.25;6.62;;;;;;;17.12;29.30;99615.16;2159453;82;34205;-64
2021/04/28 11:29:37;;;;;;;7.45;5.08;;;;;;;17.12;29.30;99615.16;2159844;82;29166;-62
2021/04/28 11:33:11;;;;;;;9.95;5.70;;;;;;;17.23;29.08;99608.80;2252343;77;32277;-63
2021/04/28 11:36:16;;;;;;;9.25;5.85;;;;;;;17.19;28.87;99599.74;2217662;80;27673;-64
2021/04/28 11:39:46;;;;;;;8.95;5.65;;;;;;;17.22;28.16;99578.66;2217601;80;27840;-64
2021/04/28 11:42:48;;;;;;;10.98;6.42;;;;;;;17.22;28.16;99578.66;2215523;80;30423;-63
2021/04/28 11:45:52;;;;;;;10.75;6.72;;;;;;;17.31;28.83;99594.58;2217626;80;34125;-65
2021/04/28 11:49:00;;;;;;;14.30;7.07;;;;;;;17.12;28.54;99597.57;2217947;80;28571;-67
2021/04/28 11:52:03;;;;;;;18.85;6.45;;;;;;;16.92;28.54;99595.73;2217613;80;27657;-63
2021/04/28 11:55:07;;;;;;;10.25;5.92;;;;;;;16.86;29.12;99585.83;2192428;80;28883;-63
2021/04/28 11:58:28;;;;;;;9.95;4.85;;;;;;;16.95;29.78;99584.19;2217647;80;32021;-64
2021/04/28 12:01:35;;;;;;;8.53;4.95;;;;;;;17.13;29.52;99587.11;2217549;80;33123;-62
2021/04/28 12:04:48;;;;;;;10.30;5.12;;;;;;;17.37;30.09;99582.34;2191549;80;28912;-64
2021/04/28 12:07:50;;;;;;;9.23;5.37;;;;;;;17.49;29.44;99574.97;2182342;80;27679;-66
2021/04/28 12:10:55;;;;;;;7.40;4.75;;;;;;;17.55;29.39;99568.97;2216973;80;28840;-67
2021/04/28 12:13:57;;;;;;;7.62;4.60;;;;;;;17.55;28.90;99575.27;2179020;81;31141;-66
2021/04/28 12:17:00;;;;;;;7.60;5.15;;;;;;;17.52;29.06;99567.92;2178833;81;33995;-63
2021/04/28 12:20:07;;;;;;;8.25;5.70;;;;;;;17.48;28.80;99566.48;2178797;81;28650;-63
2021/04/28 12:23:10;;;;;;;9.53;6.03;;;;;;;17.42;29.38;99563.84;2205366;80;27700;-67
2021/04/28 12:26:12;;;;;;;10.78;4.97;;;;;;;17.35;28.14;99551.36;2217663;80;29756;-64
2021/04/28 12:29:22;;;;;;;8.00;4.65;;;;;;;17.35;28.14;99551.36;2217539;80;31408;-62
2021/04/28 12:32:32;;;;;;;6.17;4.35;;;;;;;17.19;28.18;99544.25;2205149;80;32347;-62
2021/04/28 12:35:37;;;;;;;5.53;4.40;;;;;;;17.19;28.18;99544.25;2193899;80;29787;-62
2021/04/28 12:38:43;;;;;;;13.25;4.60;;;;;;;17.12;28.87;99542.09;2217459;80;27779;-61
2021/04/28 12:41:46;;;;;;;11.12;5.67;;;;;;;17.18;29.34;99556.07;2213107;80;29413;-63
2021/04/28 12:44:49;;;;;;;12.20;4.20;;;;;;;17.15;29.01;99555.83;2195070;80;32130;-67
2021/04/28 12:47:52;;;;;;;6.05;4.30;;;;;;;17.15;29.24;99557.19;2216856;80;33196;-67
2021/04/28 12:50:55;;;;;;;9.85;5.20;;;;;;;17.17;29.34;99538.96;2216767;80;28838;-62
2021/04/28 12:53:58;;;;;;;6.47;4.28;;;;;;;17.22;29.11;99539.41;2211973;80;27645;-65
2021/04/28 12:57:03;;;;;;;8.75;5.37;;;;;;;17.14;28.74;99526.57;2202076;80;28838;-69
2021/04/28 13:00:09;;;;;;;8.90;4.85;;;;;;;17.07;28.75;99529.45;2150825;81;31142;-68
2021/04/28 13:03:25;;;;;;;7.10;3.92;;;;;;;17.08;29.34;99523.56;2208925;80;32304;-66
2021/04/28 13:06:28;;;;;;;6.90;4.42;;;;;;;17.11;28.87;99514.66;2189090;80;28851;-67
2021/04/28 13:09:31;;;;;;;9.10;5.35;;;;;;;17.18;29.56;99515.47;2216349;80;28071;-66
2021/04/28 13:12:39;;;;;;;7.80;4.83;;;;;;;17.14;28.93;99494.09;2216091;80;29589;-67
2021/04/28 13:15:41;;;;;;;8.68;5.20;;;;;;;17.14;28.93;99494.09;2184556;80;31010;-68
2021/04/28 13:18:50;;;;;;;9.08;5.25;;;;;;;17.07;28.86;99495.63;2177273;81;33067;-68
2021/04/28 13:22:02;;;;;;;5.95;4.47;;;;;;;17.06;29.38;99497.13;2186158;80;28202;-64
2021/04/28 13:25:09;;;;;;;7.75;5.28;;;;;;;17.11;29.57;99493.52;2196566;80;27680;-68
2021/04/28 13:28:35;;;;;;;6.47;4.03;;;;;;;17.09;29.55;99490.09;2136767;83;29020;-68
2021/04/28 13:31:45;;;;;;;8.15;5.37;;;;;;;17.14;29.50;99479.69;2023305;86;32333;-66
2021/04/28 13:34:47;;;;;;;6.47;5.10;;;;;;;17.15;29.36;99489.04;2060119;85;33122;-69
2021/04/28 13:37:58;;;;;;;9.60;5.58;;;;;;;17.13;28.83;99486.09;2080734;85;30071;-67
2021/04/28 13:41:05;;;;;;;9.50;5.40;;;;;;;17.10;29.26;99478.28;2080780;85;27732;-67
2021/04/28 13:44:18;;;;;;;12.18;5.87;;;;;;;17.15;28.82;99473.28;2342388;76;32304;-64
2021/04/28 13:47:21;;;;;;;11.38;5.62;;;;;;;17.09;29.33;99475.21;2294156;77;27637;-67
2021/04/28 13:50:25;;;;;;;6.62;4.90;;;;;;;17.10;29.50;99469.64;2232460;78;28816;-67
2021/04/28 13:53:30;;;;;;;9.05;5.05;;;;;;;17.11;29.38;99470.01;2262168;78;32044;-64
2021/04/28 13:56:33;;;;;;;8.90;5.08;;;;;;;17.12;29.54;99466.30;2262006;78;33094;-67
2021/04/28 13:59:35;;;;;;;13.50;6.00;;;;;;;17.19;29.82;99459.84;2262105;77;28532;-68
2021/04/28 14:02:38;;;;;;;7.70;5.08;;;;;;;17.21;29.53;99460.55;2283098;77;27696;-67
2021/04/28 14:05:41;;;;;;;9.33;6.10;;;;;;;17.21;29.14;99444.31;2272914;77;29686;-68
2021/04/28 14:08:44;;;;;;;9.75;5.92;;;;;;;17.21;29.23;99461.06;2303588;77;31132;-65
2021/04/28 14:11:46;;;;;;;9.58;5.60;;;;;;;17.21;29.63;99451.59;2301148;77;33055;-66
2021/04/28 14:14:49;;;;;;;11.90;6.15;;;;;;;17.25;29.61;99446.23;2261818;78;28848;-67
2021/04/28 14:17:52;;;;;;;9.58;5.40;;;;;;;17.30;29.93;99448.03;2261955;78;27679;-67